Terminal Aerodrome Forecast
Issued by NWS Birmingham, AL

Home | Current Version | Previous Version | Text Only | Print | Product List | Glossary On
Versions: 1 2 3 4 5 6 7 8 9 10 11 12 13 14 15 16
558
FTUS44 KBMX 230816 AAA
TAFBHM
TAF AMD
KBHM 230816Z 2308/2406 20006KT P6SM OVC014
      TEMPO 2310/2313 4SM BR
     FM231500 21008KT 6SM -DZ OVC015
     FM231800 22010KT P6SM VCSH OVC050
     FM240000 26003KT P6SM OVC050=

USA.gov is the U.S. government's official web portal to all federal, state and local government web resources and services.